Terminal Aerodrome Forecast
Issued by NWS

Home | Current Version | Previous Version | Text Only | Print | Product List | Glossary On
Versions: 1 2 3 4 5 6 7 8 9 10 11 12 13 14 15 16 17 18 19
000
FTUS45 KVEF 200100 AAA
TAFHND
TAF AMD
KHND 200117Z 2001/2024 15011KT P6SM SCT100
     FM200500 19010KT P6SM SCT120
     FM201900 19012G22KT P6SM VCSH BKN120=

USA.gov is the U.S. government's official web portal to all federal, state and local government web resources and services.